Time;durP1;ratioP1;P1;durP2;ratioP2;P2;SDS_P1;SDS_P2;PMS_P1;PMS_P2;Temp;Humidity;BMP_temperature;BMP_pressure;BME280_temperature;BME280_humidity;BME280_pressure;Samples;Min_cycle;Max_cycle;Signal;HPM_P1;HPM_P2
2022/08/03 00:00:53;;;;;;;18.17;2.20;;;42.60;35.90;;;;;;5013636;28;20409;-64
2022/08/03 00:03:19;;;;;;;9.75;1.92;;;42.60;35.10;;;;;;5026020;28;20047;-64
2022/08/03 00:05:46;;;;;;;12.02;2.13;;;42.60;35.40;;;;;;5024636;28;20043;-65
2022/08/03 00:08:12;;;;;;;17.98;2.47;;;42.60;34.90;;;;;;5014255;28;20051;-62
2022/08/03 00:10:38;;;;;;;18.58;2.65;;;42.50;34.80;;;;;;5006778;28;20132;-64
2022/08/03 00:13:05;;;;;;;9.18;2.00;;;42.50;35.90;;;;;;5019547;28;20050;-65
2022/08/03 00:15:31;;;;;;;16.55;1.90;;;42.50;35.10;;;;;;5023572;28;20051;-62
2022/08/03 00:17:58;;;;;;;12.82;2.38;;;42.30;35.40;;;;;;5021873;28;20054;-62
2022/08/03 00:20:24;;;;;;;13.60;2.38;;;42.00;35.70;;;;;;5019149;28;20057;-62
2022/08/03 00:22:51;;;;;;;7.38;1.83;;;42.10;37.10;;;;;;5023801;28;20052;-64
2022/08/03 00:25:18;;;;;;;11.32;2.15;;;42.10;35.80;;;;;;5019605;28;20050;-63
2022/08/03 00:27:44;;;;;;;8.10;2.10;;;42.00;35.80;;;;;;5020686;28;20054;-65
2022/08/03 00:30:11;;;;;;;17.67;2.30;;;42.00;37.00;;;;;;5013272;28;20074;-63
2022/08/03 00:32:37;;;;;;;19.10;2.38;;;41.90;36.10;;;;;;5013929;28;20057;-65
2022/08/03 00:35:04;;;;;;;6.00;1.92;;;41.80;36.20;;;;;;5022064;28;20147;-64
2022/08/03 00:37:30;;;;;;;12.75;2.28;;;41.80;36.60;;;;;;5023784;28;20051;-64
2022/08/03 00:39:56;;;;;;;10.55;2.08;;;41.80;37.00;;;;;;5008486;28;20057;-64
2022/08/03 00:42:23;;;;;;;9.73;2.20;;;41.80;37.30;;;;;;5011956;28;20060;-63
2022/08/03 00:44:49;;;;;;;16.17;2.60;;;41.70;36.30;;;;;;5013546;28;20083;-62
2022/08/03 00:47:15;;;;;;;10.32;2.17;;;41.60;35.70;;;;;;5044475;28;20079;-63
2022/08/03 00:49:42;;;;;;;7.80;2.13;;;41.60;37.00;;;;;;5019114;28;20116;-62
2022/08/03 00:52:10;;;;;;;19.50;2.50;;;41.50;36.00;;;;;;5029644;28;20509;-63
2022/08/03 00:54:38;;;;;;;20.80;2.70;;;41.50;36.30;;;;;;5026769;28;20136;-62
2022/08/03 00:57:05;;;;;;;11.88;2.67;;;41.50;36.40;;;;;;5046957;28;20083;-63
2022/08/03 00:59:32;;;;;;;17.02;2.58;;;41.50;37.30;;;;;;5011398;28;20080;-64
2022/08/03 01:01:58;;;;;;;14.43;2.50;;;41.40;37.10;;;;;;5020670;28;20050;-64
2022/08/03 01:04:25;;;;;;;14.90;2.10;;;41.30;36.70;;;;;;5026955;28;20093;-64
2022/08/03 01:07:09;;;;;;;13.82;2.40;;;41.30;36.20;;;;;;5026578;28;20047;-65
2022/08/03 01:10:13;;;;;;;18.75;3.03;;;41.30;36.30;;;;;;5009911;28;20159;-64
2022/08/03 01:13:15;;;;;;;8.25;2.45;;;41.10;37.20;;;;;;5023406;28;20052;-63
2022/08/03 01:15:56;;;;;;;16.33;2.75;;;41.10;37.20;;;;;;4987024;28;20052;-63
2022/08/03 01:18:44;;;;;;;7.00;2.50;;;41.10;38.50;;;;;;5014146;28;20051;-63
2022/08/03 01:21:20;;;;;;;11.73;2.50;;;41.00;37.10;;;;;;5027154;28;20135;-64
2022/08/03 01:24:14;;;;;;;10.00;2.70;;;41.00;37.00;;;;;;5012558;28;20047;-63
2022/08/03 01:26:59;;;;;;;14.50;2.90;;;40.90;37.10;;;;;;5016485;28;20149;-64
2022/08/03 01:29:57;;;;;;;6.97;1.90;;;40.90;37.20;;;;;;5029489;28;20427;-64
2022/08/03 01:32:48;;;;;;;11.75;1.98;;;40.80;37.80;;;;;;5019163;28;20046;-64
2022/08/03 01:35:20;;;;;;;9.80;1.85;;;40.70;37.80;;;;;;5015766;28;20085;-63
2022/08/03 01:37:57;;;;;;;12.57;1.63;;;40.70;37.80;;;;;;5016118;28;20057;-64
2022/08/03 01:40:26;;;;;;;5.45;1.67;;;40.60;37.60;;;;;;5014968;28;20148;-64
2022/08/03 01:42:56;;;;;;;12.38;2.33;;;40.50;37.50;;;;;;5010893;28;20061;-66
2022/08/03 01:45:24;;;;;;;10.70;1.70;;;40.50;38.30;;;;;;5011163;28;20536;-64
2022/08/03 01:47:52;;;;;;;6.20;2.10;;;40.40;38.00;;;;;;5023246;28;20104;-64
2022/08/03 01:50:23;;;;;;;10.75;1.83;;;40.40;38.20;;;;;;5009676;28;20096;-64
2022/08/03 01:52:50;;;;;;;10.35;1.85;;;40.30;38.40;;;;;;5028457;28;20057;-64
2022/08/03 01:55:19;;;;;;;14.90;1.90;;;40.30;37.90;;;;;;5028944;28;20069;-63
2022/08/03 01:57:48;;;;;;;10.50;2.00;;;40.10;38.20;;;;;;5026020;28;20097;-63
2022/08/03 02:00:15;;;;;;;16.70;2.10;;;40.00;38.20;;;;;;5026455;28;20076;-63
2022/08/03 02:02:43;;;;;;;7.13;2.25;;;40.00;38.90;;;;;;5009297;28;20143;-63
2022/08/03 02:05:12;;;;;;;14.95;2.15;;;39.90;39.60;;;;;;5011027;28;20081;-64
2022/08/03 02:07:40;;;;;;;10.70;2.58;;;39.80;39.10;;;;;;5011888;28;20054;-63
2022/08/03 02:10:09;;;;;;;12.32;2.10;;;39.80;39.00;;;;;;5026554;28;20090;-67
2022/08/03 02:12:37;;;;;;;6.45;2.05;;;39.70;38.90;;;;;;5010308;28;20074;-64
2022/08/03 02:15:04;;;;;;;10.65;1.98;;;39.70;39.80;;;;;;5009554;28;20062;-64
2022/08/03 02:17:33;;;;;;;7.25;2.00;;;39.50;39.50;;;;;;5017322;28;20079;-64
2022/08/03 02:20:00;;;;;;;12.95;2.42;;;39.50;39.40;;;;;;5026713;28;20115;-64
2022/08/03 02:22:28;;;;;;;9.90;1.80;;;39.50;39.80;;;;;;4996633;28;20069;-66
2022/08/03 02:24:55;;;;;;;9.85;2.10;;;39.40;39.80;;;;;;5009485;28;20632;-65
2022/08/03 02:27:26;;;;;;;7.38;2.00;;;39.30;39.40;;;;;;5012368;28;20151;-63
2022/08/03 02:30:01;;;;;;;11.82;5.20;;;39.20;39.90;;;;;;5025101;28;20079;-66
2022/08/03 02:32:40;;;;;;;22.40;17.00;;;39.10;40.20;;;;;;5010594;28;20091;-66
2022/08/03 02:35:10;;;;;;;19.30;7.60;;;39.00;40.90;;;;;;5013201;28;20081;-66
2022/08/03 02:37:45;;;;;;;14.25;2.83;;;39.00;41.30;;;;;;5027854;28;20140;-63
2022/08/03 02:40:14;;;;;;;17.10;2.55;;;38.90;40.10;;;;;;5015010;28;20572;-64
2022/08/03 02:42:43;;;;;;;17.80;2.60;;;38.90;36.80;;;;;;5016247;28;20088;-64
2022/08/03 02:45:14;;;;;;;20.95;2.78;;;38.90;36.00;;;;;;5011912;28;20114;-65
2022/08/03 02:47:44;;;;;;;19.15;2.63;;;38.90;35.70;;;;;;5025065;28;20069;-66
2022/08/03 02:50:12;;;;;;;28.55;3.58;;;38.90;35.80;;;;;;5028157;28;20172;-65
2022/08/03 02:52:41;;;;;;;23.75;2.55;;;38.90;36.30;;;;;;5016316;28;20493;-63
2022/08/03 02:55:10;;;;;;;19.02;2.60;;;38.80;35.60;;;;;;5025018;28;20575;-63
2022/08/03 02:57:37;;;;;;;15.98;2.83;;;38.80;35.50;;;;;;5027304;28;20097;-64
2022/08/03 03:00:05;;;;;;;12.82;2.60;;;38.70;35.50;;;;;;5013349;28;20219;-64
2022/08/03 03:02:32;;;;;;;20.30;2.50;;;38.70;35.80;;;;;;5030890;28;20091;-64
2022/08/03 03:05:01;;;;;;;12.13;2.35;;;38.60;35.60;;;;;;5011561;28;20139;-64
2022/08/03 03:07:28;;;;;;;21.20;2.60;;;38.60;35.90;;;;;;5011476;28;20089;-64
2022/08/03 03:09:55;;;;;;;21.48;2.85;;;38.50;35.80;;;;;;5025029;28;20097;-64
2022/08/03 03:12:23;;;;;;;16.02;2.80;;;38.50;36.30;;;;;;5010012;28;20747;-66
2022/08/03 03:14:50;;;;;;;22.48;2.80;;;38.40;36.20;;;;;;5027456;28;20134;-65
2022/08/03 03:17:17;;;;;;;14.57;2.45;;;38.40;35.90;;;;;;5012963;28;20072;-63
2022/08/03 03:19:44;;;;;;;19.58;2.70;;;38.30;36.40;;;;;;5009108;28;20077;-64
2022/08/03 03:22:11;;;;;;;19.40;3.03;;;38.30;36.90;;;;;;5017265;28;20099;-63
2022/08/03 03:24:40;;;;;;;13.07;2.67;;;38.20;36.20;;;;;;5026440;28;20080;-64
2022/08/03 03:27:08;;;;;;;15.27;3.10;;;38.20;36.70;;;;;;5025420;28;20079;-67
2022/08/03 03:29:35;;;;;;;22.45;2.92;;;38.10;36.40;;;;;;5024893;28;20454;-65
2022/08/03 03:32:03;;;;;;;22.67;3.50;;;38.10;36.40;;;;;;5026387;28;20463;-64
2022/08/03 03:34:30;;;;;;;14.52;3.20;;;38.00;36.60;;;;;;5024739;28;20055;-66
2022/08/03 03:36:56;;;;;;;13.57;2.42;;;38.00;36.40;;;;;;5023356;28;20105;-65
2022/08/03 03:39:23;;;;;;;20.98;2.63;;;37.90;36.60;;;;;;5011026;28;20070;-65
2022/08/03 03:41:49;;;;;;;19.75;2.70;;;37.90;36.70;;;;;;5016854;28;20061;-65
2022/08/03 03:44:16;;;;;;;14.20;2.42;;;37.80;36.70;;;;;;5008462;28;20063;-65
2022/08/03 03:46:42;;;;;;;17.08;2.55;;;37.80;37.10;;;;;;5013999;28;20058;-66
2022/08/03 03:49:09;;;;;;;10.63;2.60;;;37.70;37.00;;;;;;5009264;28;20197;-65
2022/08/03 03:51:35;;;;;;;23.73;2.53;;;37.70;37.00;;;;;;5024540;28;20548;-64
2022/08/03 03:54:05;;;;;;;12.05;2.47;;;37.60;37.00;;;;;;5013982;28;20097;-67
2022/08/03 03:56:32;;;;;;;18.45;2.42;;;37.60;37.00;;;;;;5014234;28;20075;-66
2022/08/03 03:58:59;;;;;;;19.10;2.53;;;37.60;37.50;;;;;;5020170;28;20126;-68
2022/08/03 04:01:26;;;;;;;15.75;2.90;;;37.50;37.30;;;;;;5022650;28;20129;-65
2022/08/03 04:03:52;;;;;;;17.58;2.92;;;37.40;37.00;;;;;;5027800;28;20081;-65
2022/08/03 04:12:06;;;;;;;13.60;3.08;;;37.30;37.00;;;;;;5016669;28;20124;-66
2022/08/03 04:14:35;;;;;;;14.50;3.45;;;37.30;37.10;;;;;;5011198;28;20614;-66
2022/08/03 04:17:04;;;;;;;15.18;2.95;;;37.20;37.40;;;;;;5016710;28;20165;-66
2022/08/03 04:19:39;;;;;;;13.00;2.80;;;37.10;37.50;;;;;;5026300;28;20619;-65
2022/08/03 04:22:10;;;;;;;11.35;2.88;;;37.10;37.80;;;;;;5013223;28;20084;-67
2022/08/03 04:24:48;;;;;;;21.23;3.22;;;37.10;37.40;;;;;;5012247;28;20081;-65
2022/08/03 04:27:21;;;;;;;18.10;3.08;;;37.10;37.50;;;;;;5016239;28;20163;-65
2022/08/03 04:29:50;;;;;;;13.85;2.47;;;37.00;37.30;;;;;;5019016;28;20108;-65
2022/08/03 04:32:19;;;;;;;15.30;2.58;;;36.90;37.40;;;;;;5027571;28;20165;-66
2022/08/03 04:34:46;;;;;;;15.60;2.75;;;36.90;37.20;;;;;;5028049;28;20074;-67
2022/08/03 04:37:24;;;;;;;13.30;2.97;;;36.90;37.30;;;;;;5028184;28;20119;-65
2022/08/03 04:39:53;;;;;;;15.75;2.83;;;36.80;37.40;;;;;;5019152;28;20150;-66
2022/08/03 04:42:21;;;;;;;12.68;2.42;;;36.80;37.20;;;;;;5029942;28;20520;-66
2022/08/03 04:44:49;;;;;;;18.90;3.35;;;36.70;37.50;;;;;;5015340;28;20077;-66
2022/08/03 04:47:16;;;;;;;8.18;2.40;;;36.70;37.80;;;;;;5053135;22;20597;-66
2022/08/03 04:49:42;;;;;;;22.17;2.53;;;36.70;37.60;;;;;;5059277;28;20439;-65
2022/08/03 04:52:09;;;;;;;20.00;3.08;;;36.70;37.70;;;;;;5040069;28;20072;-66
2022/08/03 04:54:43;;;;;;;16.88;2.08;;;36.60;37.80;;;;;;5040783;28;20088;-67
2022/08/03 04:57:11;;;;;;;9.50;2.28;;;36.60;37.50;;;;;;5037631;28;20070;-67
2022/08/03 04:59:37;;;;;;;7.78;1.98;;;36.60;37.50;;;;;;5026853;28;20101;-67
2022/08/03 05:02:05;;;;;;;11.18;2.42;;;36.60;37.70;;;;;;5035089;28;20143;-67
2022/08/03 05:04:34;;;;;;;17.00;2.63;;;36.60;37.60;;;;;;5049874;28;20072;-66
2022/08/03 05:07:00;;;;;;;12.15;2.60;;;36.60;37.70;;;;;;5049903;28;20567;-66
2022/08/03 05:09:27;;;;;;;14.00;3.17;;;36.50;37.80;;;;;;5037013;28;20431;-66
2022/08/03 05:11:54;;;;;;;9.75;2.55;;;36.50;38.10;;;;;;5028028;28;20080;-66
2022/08/03 05:14:20;;;;;;;9.00;2.67;;;36.40;37.70;;;;;;5023077;28;20081;-66
2022/08/03 05:16:47;;;;;;;7.90;2.25;;;36.40;38.40;;;;;;5057723;28;20156;-66
2022/08/03 05:19:13;;;;;;;10.50;2.28;;;36.40;38.50;;;;;;5047576;28;20188;-66
2022/08/03 05:21:39;;;;;;;14.57;2.28;;;36.30;38.40;;;;;;5045828;28;20080;-66
2022/08/03 05:24:06;;;;;;;13.13;3.05;;;36.30;38.30;;;;;;5035203;28;20156;-65
2022/08/03 05:26:32;;;;;;;12.18;2.40;;;36.30;38.30;;;;;;5035021;28;20550;-65
2022/08/03 05:28:58;;;;;;;8.55;1.98;;;36.30;38.00;;;;;;5035754;28;20515;-67
2022/08/03 05:31:25;;;;;;;12.10;2.15;;;36.20;38.10;;;;;;5043618;28;20185;-66
2022/08/03 05:33:51;;;;;;;13.07;2.20;;;36.20;38.30;;;;;;5047808;28;20518;-66
2022/08/03 05:36:18;;;;;;;10.52;2.00;;;36.10;38.10;;;;;;5048238;28;20422;-66
2022/08/03 05:38:44;;;;;;;9.52;2.00;;;36.10;38.20;;;;;;5045760;28;20500;-66
2022/08/03 05:41:10;;;;;;;10.57;1.95;;;36.10;38.30;;;;;;5022131;28;20073;-65
2022/08/03 05:43:37;;;;;;;9.90;1.88;;;36.10;38.20;;;;;;5035815;28;20084;-67
2022/08/03 05:46:03;;;;;;;9.90;2.15;;;36.00;38.30;;;;;;5036419;28;20088;-66
2022/08/03 05:48:30;;;;;;;13.25;2.75;;;36.00;38.30;;;;;;5043635;28;20123;-66
2022/08/03 05:50:56;;;;;;;11.63;2.20;;;36.00;38.70;;;;;;5037338;28;20069;-68
2022/08/03 05:53:23;;;;;;;21.52;3.05;;;36.00;38.30;;;;;;5033800;28;20095;-66
2022/08/03 05:55:49;;;;;;;15.88;3.20;;;36.10;38.40;;;;;;5036830;28;20077;-69
2022/08/03 05:58:16;;;;;;;9.55;2.00;;;36.10;39.00;;;;;;5041673;28;20092;-69
2022/08/03 06:00:42;;;;;;;14.63;3.42;;;36.00;38.40;;;;;;5032908;28;20069;-66
2022/08/03 06:03:08;;;;;;;21.35;3.40;;;36.10;39.10;;;;;;5032747;28;20163;-64
2022/08/03 06:05:35;;;;;;;18.20;2.67;;;36.10;38.80;;;;;;5017163;28;20072;-68
2022/08/03 06:08:02;;;;;;;18.42;2.55;;;36.10;38.90;;;;;;5036097;28;20156;-66
2022/08/03 06:10:30;;;;;;;10.13;2.38;;;36.00;38.50;;;;;;5025810;28;20094;-69
2022/08/03 06:12:56;;;;;;;10.90;2.42;;;36.00;38.30;;;;;;5042276;28;20107;-66
2022/08/03 06:15:22;;;;;;;11.75;1.92;;;36.00;38.50;;;;;;5034859;28;20087;-67
2022/08/03 06:17:50;;;;;;;15.65;2.05;;;36.00;38.40;;;;;;5033221;28;20096;-67
2022/08/03 06:20:18;;;;;;;9.95;2.45;;;36.00;38.70;;;;;;5027444;28;20507;-66
2022/08/03 06:22:48;;;;;;;8.30;1.85;;;35.90;38.80;;;;;;5032751;28;20075;-66
2022/08/03 06:25:15;;;;;;;10.43;1.90;;;36.00;38.70;;;;;;5039659;28;20585;-64
2022/08/03 06:27:42;;;;;;;6.32;2.03;;;35.90;38.60;;;;;;5030887;28;20127;-65
2022/08/03 06:30:11;;;;;;;7.70;2.10;;;35.90;38.70;;;;;;5029110;28;20091;-66
2022/08/03 06:32:38;;;;;;;9.07;1.80;;;35.90;38.70;;;;;;5039090;28;20068;-67
2022/08/03 06:35:08;;;;;;;9.90;1.85;;;35.90;38.80;;;;;;5043739;28;20076;-67
2022/08/03 06:37:49;;;;;;;11.25;1.80;;;35.80;39.20;;;;;;5046890;28;20091;-67
2022/08/03 06:40:18;;;;;;;4.90;1.60;;;35.80;39.00;;;;;;5019791;28;20486;-67
2022/08/03 06:42:44;;;;;;;8.70;2.22;;;35.80;38.50;;;;;;5045829;28;20422;-67
2022/08/03 06:45:12;;;;;;;19.23;2.00;;;35.90;38.90;;;;;;5040278;28;20483;-67
2022/08/03 06:47:39;;;;;;;10.32;2.10;;;35.80;39.20;;;;;;5031215;28;20563;-65
2022/08/03 06:50:06;;;;;;;8.43;1.83;;;35.80;39.20;;;;;;5036582;28;20093;-67
2022/08/03 06:52:33;;;;;;;8.68;1.80;;;35.80;39.00;;;;;;5042233;28;20488;-66
2022/08/03 06:54:59;;;;;;;17.80;2.30;;;35.70;39.10;;;;;;5035099;28;20085;-67
2022/08/03 06:57:26;;;;;;;9.07;2.33;;;35.70;39.10;;;;;;5037919;28;20546;-66
2022/08/03 06:59:52;;;;;;;5.30;1.80;;;35.70;38.90;;;;;;5047360;28;20127;-67
2022/08/03 07:02:19;;;;;;;10.63;2.38;;;35.70;39.70;;;;;;5043597;28;20077;-66
2022/08/03 07:04:46;;;;;;;8.60;1.83;;;35.70;39.70;;;;;;5037822;28;20572;-67
2022/08/03 07:07:13;;;;;;;5.63;1.83;;;35.70;39.80;;;;;;5030736;28;20077;-66
2022/08/03 07:09:39;;;;;;;6.72;2.22;;;35.60;40.00;;;;;;5034798;28;20127;-66
2022/08/03 07:12:06;;;;;;;10.55;2.10;;;35.60;39.30;;;;;;5033734;28;20072;-66
2022/08/03 07:14:32;;;;;;;7.93;2.28;;;35.60;39.80;;;;;;5034626;28;20099;-67
2022/08/03 07:16:59;;;;;;;8.05;1.80;;;35.60;40.20;;;;;;5045297;28;20438;-67
2022/08/03 07:19:25;;;;;;;6.15;1.92;;;35.60;39.90;;;;;;5032651;28;20478;-66
2022/08/03 07:21:51;;;;;;;18.23;2.47;;;35.50;39.90;;;;;;5033942;28;20563;-66
2022/08/03 07:24:18;;;;;;;8.20;2.00;;;35.50;40.10;;;;;;5021230;28;20091;-65
2022/08/03 07:26:44;;;;;;;10.95;2.15;;;35.50;40.40;;;;;;5030732;28;20279;-66
2022/08/03 07:29:10;;;;;;;8.82;2.15;;;35.50;39.70;;;;;;5030590;28;20097;-67
2022/08/03 07:31:37;;;;;;;13.82;2.08;;;35.40;40.50;;;;;;5030569;28;20065;-66
2022/08/03 07:34:03;;;;;;;6.68;2.30;;;35.40;40.20;;;;;;5031747;28;20569;-67
2022/08/03 07:36:31;;;;;;;9.10;2.05;;;35.40;40.40;;;;;;5036104;28;20481;-66
2022/08/03 07:38:57;;;;;;;8.30;2.08;;;35.40;40.60;;;;;;5043891;28;20442;-67
2022/08/03 07:41:24;;;;;;;8.98;2.53;;;35.30;40.90;;;;;;5032573;28;20077;-67
2022/08/03 07:43:50;;;;;;;7.25;1.80;;;35.30;40.90;;;;;;5043610;28;20077;-67
2022/08/03 07:46:17;;;;;;;5.15;1.80;;;35.30;41.10;;;;;;5047644;28;20078;-67
2022/08/03 07:48:43;;;;;;;5.07;1.67;;;35.20;41.00;;;;;;5040108;28;20112;-65
2022/08/03 07:51:10;;;;;;;9.38;1.90;;;35.20;40.60;;;;;;5041622;28;20150;-67
2022/08/03 07:53:36;;;;;;;7.53;1.90;;;35.20;40.50;;;;;;5030142;28;20176;-67
2022/08/03 07:56:03;;;;;;;4.75;1.60;;;35.20;40.20;;;;;;5064417;28;20068;-66
2022/08/03 07:58:29;;;;;;;6.63;1.85;;;35.10;40.40;;;;;;5036928;28;20073;-66
2022/08/03 08:00:55;;;;;;;4.10;1.50;;;35.10;40.60;;;;;;5047938;28;20073;-67
2022/08/03 08:03:22;;;;;;;10.07;1.60;;;35.10;40.10;;;;;;5050580;28;20157;-65
2022/08/03 08:05:48;;;;;;;6.57;1.98;;;35.10;40.80;;;;;;5050935;28;20169;-65
2022/08/03 08:08:15;;;;;;;7.80;1.80;;;35.10;40.20;;;;;;5047001;28;20425;-66
2022/08/03 08:10:41;;;;;;;7.97;1.63;;;35.00;40.30;;;;;;5038091;28;21112;-67
2022/08/03 08:13:08;;;;;;;7.22;1.70;;;35.00;41.00;;;;;;5028244;28;20084;-67
2022/08/03 08:15:34;;;;;;;9.20;1.98;;;34.90;40.80;;;;;;5036356;28;20216;-64
2022/08/03 08:18:02;;;;;;;10.35;2.60;;;34.90;40.40;;;;;;5030542;28;20099;-67
2022/08/03 08:20:34;;;;;;;13.43;4.10;;;34.90;42.30;;;;;;5039953;28;20080;-67
2022/08/03 08:23:06;;;;;;;28.30;5.00;;;34.80;46.40;;;;;;5047833;28;20534;-66
2022/08/03 08:25:33;;;;;;;24.40;5.03;;;34.80;46.30;;;;;;5051915;28;20527;-66
2022/08/03 08:28:03;;;;;;;21.15;5.32;;;34.80;47.20;;;;;;5047907;28;20092;-65
2022/08/03 08:30:31;;;;;;;20.80;5.28;;;34.70;48.10;;;;;;5046723;28;20181;-66
2022/08/03 08:32:58;;;;;;;16.92;4.40;;;34.70;48.70;;;;;;5040443;28;20065;-67
2022/08/03 08:35:24;;;;;;;15.82;3.55;;;34.60;48.30;;;;;;5036347;28;20176;-66
2022/08/03 08:37:51;;;;;;;12.88;3.40;;;34.60;48.90;;;;;;5043465;28;20069;-66
2022/08/03 08:40:23;;;;;;;13.07;4.53;;;34.60;50.40;;;;;;5043037;28;20091;-65
2022/08/03 08:42:50;;;;;;;20.17;3.72;;;34.50;51.50;;;;;;5033640;28;20545;-66
2022/08/03 08:45:17;;;;;;;13.40;4.22;;;34.50;52.40;;;;;;5035684;28;20546;-63
2022/08/03 08:47:46;;;;;;;20.88;3.63;;;34.50;54.40;;;;;;5033544;28;20144;-66
2022/08/03 08:50:16;;;;;;;14.52;4.18;;;34.40;55.30;;;;;;5029482;28;20158;-66
2022/08/03 08:52:45;;;;;;;21.40;3.95;;;34.40;55.80;;;;;;5027327;28;20073;-64
2022/08/03 08:55:16;;;;;;;17.15;4.43;;;34.30;56.40;;;;;;5043868;28;20474;-66
2022/08/03 08:57:50;;;;;;;21.52;4.32;;;34.30;57.00;;;;;;5045033;28;20100;-65
2022/08/03 09:00:17;;;;;;;18.77;3.55;;;34.20;57.60;;;;;;5034007;28;20497;-66
2022/08/03 09:02:45;;;;;;;16.90;4.93;;;34.10;58.20;;;;;;5047317;28;20126;-66
2022/08/03 09:05:17;;;;;;;19.73;4.47;;;34.10;59.00;;;;;;5032489;28;20076;-67
2022/08/03 09:07:44;;;;;;;14.98;3.60;;;34.00;59.90;;;;;;5017520;28;20097;-67
2022/08/03 09:10:13;;;;;;;15.85;3.85;;;33.80;60.80;;;;;;5031180;28;20144;-66
2022/08/03 09:12:42;;;;;;;13.98;4.30;;;33.80;62.30;;;;;;5045835;28;20554;-67
2022/08/03 09:15:27;;;;;;;9.98;4.00;;;33.70;62.10;;;;;;5033522;28;20497;-66
2022/08/03 09:17:55;;;;;;;10.70;3.72;;;33.80;63.30;;;;;;5019365;28;20127;-66
2022/08/03 09:20:24;;;;;;;17.63;3.75;;;33.70;63.80;;;;;;5063050;28;20112;-67
2022/08/03 09:23:07;;;;;;;14.95;3.95;;;33.60;64.20;;;;;;5038018;28;20535;-67
2022/08/03 09:25:41;;;;;;;20.27;3.75;;;33.60;64.70;;;;;;5017651;28;20129;-68
2022/08/03 09:28:10;;;;;;;14.00;4.07;;;33.50;65.60;;;;;;5038760;28;20558;-65
2022/08/03 09:30:43;;;;;;;18.80;4.40;;;33.50;66.20;;;;;;5033540;28;20139;-66
2022/08/03 09:33:12;;;;;;;14.45;4.68;;;33.50;67.50;;;;;;5048040;28;20549;-66
2022/08/03 09:35:43;;;;;;;16.02;4.25;;;33.40;67.50;;;;;;5032635;28;20081;-67
2022/08/03 09:38:22;;;;;;;13.57;3.60;;;33.40;69.10;;;;;;5032791;28;20100;-68
2022/08/03 09:40:49;;;;;;;12.82;4.13;;;33.40;70.00;;;;;;5047088;28;20572;-65
2022/08/03 09:43:16;;;;;;;12.45;4.05;;;33.40;70.60;;;;;;5022053;28;20073;-67
2022/08/03 09:45:43;;;;;;;11.65;4.28;;;33.30;71.20;;;;;;5042561;28;20070;-67
2022/08/03 09:48:31;;;;;;;13.60;4.03;;;33.30;72.40;;;;;;5039085;28;20115;-67
2022/08/03 09:50:59;;;;;;;11.02;3.53;;;33.30;73.50;;;;;;5065260;28;20274;-66
2022/08/03 09:53:26;;;;;;;11.98;4.15;;;33.20;74.10;;;;;;5029377;28;20118;-66
2022/08/03 09:55:58;;;;;;;8.95;3.13;;;33.20;74.40;;;;;;5035905;28;20106;-67
2022/08/03 09:58:27;;;;;;;9.63;3.90;;;33.20;74.80;;;;;;5034190;28;20422;-67
2022/08/03 10:00:55;;;;;;;17.25;3.70;;;33.00;95.40;;;;;;5031659;28;20526;-66
2022/08/03 10:03:22;;;;;;;11.73;3.78;;;33.10;74.60;;;;;;5045718;28;20472;-66
2022/08/03 10:05:49;;;;;;;22.33;3.28;;;33.10;99.90;;;;;;5016776;28;20022;-66
2022/08/03 10:08:17;;;;;;;16.50;3.70;;;33.10;99.80;;;;;;5033915;28;20025;-66
2022/08/03 10:10:46;;;;;;;11.95;3.38;;;33.00;99.90;;;;;;5028591;28;20036;-67
2022/08/03 10:13:17;;;;;;;10.63;3.10;;;33.20;99.70;;;;;;5035222;28;20472;-67
2022/08/03 10:15:44;;;;;;;12.50;3.33;;;32.90;96.20;;;;;;5041130;28;20135;-65
2022/08/03 10:18:10;;;;;;;14.85;3.45;;;32.80;95.40;;;;;;5033270;28;20036;-66
2022/08/03 10:20:50;;;;;;;10.65;3.08;;;33.10;99.90;;;;;;5034376;28;20021;-66
2022/08/03 10:23:18;;;;;;;14.63;3.22;;;32.80;75.60;;;;;;5047906;28;20039;-67
2022/08/03 10:25:47;;;;;;;9.23;3.13;;;;;;;;;;5046746;28;20368;-67
2022/08/03 10:28:17;;;;;;;14.10;3.20;;;32.90;99.30;;;;;;5033454;28;20033;-67
2022/08/03 10:30:47;;;;;;;18.73;3.42;;;32.80;98.30;;;;;;5046784;28;20479;-66
2022/08/03 10:33:26;;;;;;;11.27;3.05;;;32.80;89.30;;;;;;5024707;28;20025;-66
2022/08/03 10:35:57;;;;;;;8.15;2.72;;;32.50;75.90;;;;;;5034175;28;20556;-67
2022/08/03 10:38:31;;;;;;;21.60;3.67;;;32.70;74.40;;;;;;5014275;28;20059;-65
2022/08/03 10:41:00;;;;;;;14.35;3.47;;;32.90;99.90;;;;;;5046453;28;20079;-67
2022/08/03 10:43:57;;;;;;;11.98;3.88;;;32.80;74.90;;;;;;5014203;28;20471;-66
2022/08/03 10:46:26;;;;;;;9.57;3.40;;;32.70;89.00;;;;;;5034239;28;20053;-66
2022/08/03 10:48:53;;;;;;;12.20;3.70;;;32.80;98.60;;;;;;5023601;28;20082;-67
2022/08/03 10:51:20;;;;;;;12.02;3.80;;;32.80;96.80;;;;;;5014702;28;20021;-67
2022/08/03 10:53:47;;;;;;;14.80;4.15;;;32.50;98.20;;;;;;5045720;28;20023;-65
2022/08/03 10:59:39;;;;;;;14.85;3.53;;;32.50;98.60;;;;;;5031499;28;20042;-65
2022/08/03 11:02:08;;;;;;;12.48;3.28;;;32.40;99.10;;;;;;5034320;28;20115;-66
2022/08/03 11:04:35;;;;;;;10.65;3.10;;;32.60;97.80;;;;;;5033379;28;20035;-67
2022/08/03 11:07:16;;;;;;;7.80;2.67;;;32.40;75.60;;;;;;5016591;28;20029;-68
2022/08/03 11:09:48;;;;;;;12.18;3.35;;;32.40;99.90;;;;;;5064060;28;20091;-67
2022/08/03 11:12:22;;;;;;;13.45;2.80;;;32.50;76.70;;;;;;5044387;28;20116;-66
2022/08/03 11:14:48;;;;;;;12.85;3.30;;;32.40;75.70;;;;;;5036895;28;20035;-68
2022/08/03 11:17:15;;;;;;;11.32;2.92;;;32.40;99.70;;;;;;5040498;28;20029;-67
2022/08/03 11:19:50;;;;;;;17.70;3.50;;;32.30;97.30;;;;;;5054038;28;20026;-66
2022/08/03 11:22:18;;;;;;;12.88;3.17;;;32.00;96.70;;;;;;5046615;28;20511;-66
2022/08/03 11:24:50;;;;;;;19.10;3.92;;;32.30;94.90;;;;;;5045074;28;20386;-66
2022/08/03 11:27:27;;;;;;;14.77;3.22;;;32.40;98.30;;;;;;5044640;28;20116;-69
2022/08/03 11:30:12;;;;;;;12.77;3.50;;;32.40;95.50;;;;;;5029022;28;20064;-68
2022/08/03 11:32:39;;;;;;;12.80;3.55;;;32.00;94.30;;;;;;5044230;28;20071;-68
2022/08/03 11:35:32;;;;;;;15.07;3.55;;;32.50;95.30;;;;;;5038854;28;20025;-66
2022/08/03 11:37:59;;;;;;;9.18;3.15;;;;;;;;;;5033939;28;20037;-68
2022/08/03 11:40:47;;;;;;;16.15;3.63;;;32.20;96.80;;;;;;5033411;28;20120;-67
2022/08/03 11:43:36;;;;;;;10.48;3.30;;;32.80;77.50;;;;;;5033835;28;20055;-67
2022/08/03 11:46:20;;;;;;;9.20;3.33;;;32.10;76.70;;;;;;5031766;28;20021;-67
2022/08/03 11:48:48;;;;;;;21.02;3.63;;;32.40;93.50;;;;;;5046072;28;20506;-66
2022/08/03 11:51:28;;;;;;;11.52;3.55;;;31.90;94.60;;;;;;5046986;28;20453;-66
2022/08/03 11:53:57;;;;;;;18.88;3.30;;;32.10;78.40;;;;;;5041069;28;20029;-68
2022/08/03 11:56:24;;;;;;;8.70;3.15;;;32.10;78.50;;;;;;5037229;28;20033;-67
2022/08/03 11:58:54;;;;;;;16.23;3.35;;;32.10;78.50;;;;;;5044206;28;21019;-67
2022/08/03 12:01:22;;;;;;;15.02;3.55;;;32.10;78.70;;;;;;5028608;28;20140;-66
2022/08/03 12:03:49;;;;;;;9.02;3.72;;;32.10;79.00;;;;;;5030722;28;20054;-66
2022/08/03 12:06:17;;;;;;;10.02;3.40;;;32.00;79.30;;;;;;5044720;28;20601;-67
2022/08/03 12:08:44;;;;;;;12.90;2.90;;;32.10;79.20;;;;;;5061263;28;20102;-65
2022/08/03 12:11:13;;;;;;;11.98;3.47;;;32.00;80.00;;;;;;5031313;28;20064;-66
2022/08/03 12:13:45;;;;;;;10.07;3.33;;;32.00;78.70;;;;;;5045323;28;20519;-65
2022/08/03 12:16:20;;;;;;;21.67;3.33;;;31.90;79.10;;;;;;5046959;28;20475;-65
2022/08/03 12:19:02;;;;;;;11.90;3.58;;;31.90;79.30;;;;;;5046196;28;20133;-65
2022/08/03 12:21:29;;;;;;;9.77;3.28;;;31.90;79.60;;;;;;5035003;28;20168;-65
2022/08/03 12:24:03;;;;;;;10.35;3.28;;;31.90;79.50;;;;;;5042836;28;20490;-66
2022/08/03 12:26:42;;;;;;;12.50;3.45;;;31.90;79.60;;;;;;5035147;28;20074;-67
2022/08/03 12:29:19;;;;;;;10.88;3.22;;;31.90;80.10;;;;;;5045912;28;20179;-67
2022/08/03 12:31:46;;;;;;;11.80;3.50;;;31.90;80.20;;;;;;5027837;28;20582;-67
2022/08/03 12:34:14;;;;;;;15.25;3.92;;;31.90;80.30;;;;;;5031980;28;20124;-67
2022/08/03 12:36:51;;;;;;;14.02;3.85;;;31.80;80.80;;;;;;5031960;28;20445;-66
2022/08/03 12:39:23;;;;;;;14.10;4.30;;;31.80;81.00;;;;;;5030800;28;20083;-67
2022/08/03 12:41:53;;;;;;;13.60;3.92;;;31.80;80.70;;;;;;5020098;28;20095;-68
2022/08/03 12:44:32;;;;;;;19.65;4.40;;;31.70;81.30;;;;;;5037713;28;20131;-68
2022/08/03 12:47:00;;;;;;;12.40;3.78;;;31.70;81.20;;;;;;5036829;28;20130;-65
2022/08/03 12:49:28;;;;;;;18.20;4.18;;;31.70;81.20;;;;;;5040616;28;20441;-68
2022/08/03 12:51:56;;;;;;;20.20;5.15;;;31.70;81.30;;;;;;5042688;28;20065;-67
2022/08/03 12:54:26;;;;;;;13.02;3.92;;;31.70;81.20;;;;;;5049713;28;20554;-67
2022/08/03 12:56:57;;;;;;;26.33;4.47;;;31.70;81.20;;;;;;5034950;28;20084;-67
2022/08/03 12:59:25;;;;;;;23.33;4.35;;;31.70;81.00;;;;;;5044540;28;20109;-66
2022/08/03 13:01:52;;;;;;;16.23;4.38;;;31.70;80.70;;;;;;5043505;28;20099;-67